createdAt,value
2024-02-02T00:04:19.118Z,101060.81
2024-02-02T00:09:23.006Z,101063.31
2024-02-02T00:14:26.534Z,101066.06
2024-02-02T00:19:30.116Z,101082.56
2024-02-02T00:24:33.705Z,101081.00
2024-02-02T00:29:37.682Z,101089.72
2024-02-02T00:34:41.823Z,101084.84
2024-02-02T00:39:46.070Z,101073.06
2024-02-02T00:44:49.701Z,101101.97
2024-02-02T00:49:53.131Z,101104.03
2024-02-02T00:54:56.565Z,101102.75
2024-02-02T01:00:00.173Z,101104.94
2024-02-02T01:05:05.734Z,101088.63
2024-02-02T01:10:13.594Z,101088.69
2024-02-02T01:15:17.875Z,101081.22
2024-02-02T01:20:21.732Z,101081.31
2024-02-02T01:25:25.117Z,101086.84
2024-02-02T01:30:31.096Z,101077.41
2024-02-02T01:35:34.510Z,101086.22
2024-02-02T01:40:37.968Z,101075.84
2024-02-02T01:45:41.356Z,101091.59
2024-02-02T01:50:44.665Z,101095.59
2024-02-02T01:55:48.203Z,101094.16
2024-02-02T02:00:51.905Z,101095.56
2024-02-02T02:05:56.099Z,101075.38
2024-02-02T02:11:00.210Z,101073.06
2024-02-02T02:16:03.766Z,101068.09
2024-02-02T02:21:27.880Z,101073.06
2024-02-02T02:26:31.834Z,101074.28
2024-02-02T02:31:35.439Z,101065.66
2024-02-02T02:36:38.857Z,101083.84
2024-02-02T02:41:42.473Z,101082.38
2024-02-02T02:46:45.967Z,101085.28
2024-02-02T02:51:50.405Z,101085.13
2024-02-02T02:56:53.799Z,101072.47
2024-02-02T03:01:58.066Z,101069.69
2024-02-02T03:07:02.917Z,101075.59
2024-02-02T03:12:06.713Z,101079.91
2024-02-02T03:17:10.209Z,101083.53
2024-02-02T03:22:14.038Z,101086.56
2024-02-02T03:27:17.444Z,101094.97
2024-02-02T03:32:21.042Z,101088.44
2024-02-02T03:37:24.453Z,101110.53
2024-02-02T03:42:28.174Z,101101.72
2024-02-02T03:47:31.610Z,101105.47
2024-02-02T03:52:35.548Z,101106.78
2024-02-02T03:57:38.924Z,101105.75
2024-02-02T04:02:46.615Z,101108.88
2024-02-02T04:07:50.159Z,101114.38
2024-02-02T04:12:54.082Z,101127.41
2024-02-02T04:17:57.627Z,101112.59
2024-02-02T04:23:01.075Z,101133.59
2024-02-02T04:28:06.495Z,101126.94
2024-02-02T04:33:10.093Z,101127.59
2024-02-02T04:38:13.720Z,101113.34
2024-02-02T04:43:17.312Z,101124.19
2024-02-02T04:48:20.856Z,101125.69
2024-02-02T04:53:24.323Z,101122.41
2024-02-02T04:58:27.809Z,101133.25
2024-02-02T05:03:33.204Z,101128.28
2024-02-02T05:08:36.797Z,101135.50
2024-02-02T05:13:40.325Z,101134.56
2024-02-02T05:18:44.297Z,101138.13
2024-02-02T05:23:49.811Z,101137.63
2024-02-02T05:28:54.838Z,101154.63
2024-02-02T05:33:58.360Z,101159.81
2024-02-02T05:39:01.900Z,101158.84
2024-02-02T05:44:05.352Z,101175.91
2024-02-02T05:49:08.898Z,101185.38
2024-02-02T05:54:12.517Z,101191.81
2024-02-02T05:59:15.962Z,101198.16
2024-02-02T06:04:19.605Z,101204.47
2024-02-02T06:09:23.113Z,101208.28
2024-02-02T06:14:28.891Z,101210.03
2024-02-02T06:19:32.552Z,101211.59
2024-02-02T06:24:36.144Z,101213.00
2024-02-02T06:29:39.640Z,101223.22
2024-02-02T06:34:43.070Z,101239.44
2024-02-02T06:39:48.936Z,101250.63
2024-02-02T06:44:52.975Z,101249.59
2024-02-02T06:49:56.417Z,101261.59
2024-02-02T06:55:00.354Z,101259.56
2024-02-02T07:00:05.136Z,101264.91
2024-02-02T07:05:09.059Z,101264.91
2024-02-02T07:10:17.101Z,101264.53
2024-02-02T07:15:27.131Z,101255.16
2024-02-02T07:20:31.033Z,101264.56
2024-02-02T07:25:41.757Z,101256.44
2024-02-02T07:30:45.313Z,101254.78
2024-02-02T07:35:48.908Z,101255.63
2024-02-02T07:41:24.418Z,101267.56
2024-02-02T07:46:28.399Z,101284.16
2024-02-02T07:51:31.865Z,101285.31
2024-02-02T07:56:35.254Z,101288.03
2024-02-02T08:01:38.711Z,101270.97
2024-02-02T08:06:43.414Z,101275.91
2024-02-02T08:11:46.940Z,101267.25
2024-02-02T08:16:50.626Z,101258.00
2024-02-02T08:21:57.077Z,101256.88
2024-02-02T08:27:00.562Z,101261.81
2024-02-02T08:32:06.387Z,101271.88
2024-02-02T08:37:09.888Z,101271.94
2024-02-02T08:42:22.921Z,101286.22
2024-02-02T08:47:30.346Z,101294.28
2024-02-02T08:52:37.010Z,101299.16
2024-02-02T08:58:28.947Z,101291.81
2024-02-02T09:03:45.980Z,101290.25
2024-02-02T09:08:51.249Z,101297.03
2024-02-02T09:14:09.948Z,101300.56
2024-02-02T09:19:29.123Z,101315.13
2024-02-02T09:24:50.325Z,101324.31
2024-02-02T09:29:54.748Z,101320.63
2024-02-02T09:35:02.505Z,101326.44
2024-02-02T09:40:37.020Z,101325.50
2024-02-02T09:45:58.871Z,101326.59
2024-02-02T09:51:34.499Z,101319.84
2024-02-02T09:57:01.051Z,101329.13
2024-02-02T10:02:44.963Z,101320.91
2024-02-02T10:08:37.009Z,101315.50
2024-02-02T10:14:01.983Z,101311.94
2024-02-02T10:19:58.016Z,101312.00
2024-02-02T10:25:52.681Z,101308.53
2024-02-02T10:31:24.035Z,101296.56
2024-02-02T10:36:56.432Z,101291.94
2024-02-02T10:42:44.111Z,101291.47
2024-02-02T10:48:16.645Z,101268.31
2024-02-02T10:54:13.228Z,101276.28
2024-02-02T10:59:33.973Z,101261.53
2024-02-02T11:04:53.258Z,101256.16
2024-02-02T11:10:06.670Z,101246.16
2024-02-02T11:15:40.504Z,101246.03
2024-02-02T11:21:34.675Z,101234.38
2024-02-02T11:27:04.381Z,101236.13
2024-02-02T11:32:52.060Z,101232.53
2024-02-02T11:38:41.015Z,101225.28
2024-02-02T11:43:46.580Z,101225.63
2024-02-02T11:49:07.066Z,101219.88
2024-02-02T11:54:28.002Z,101231.34
2024-02-02T11:59:39.851Z,101217.63
2024-02-02T12:05:10.184Z,101225.22
2024-02-02T12:10:20.078Z,101207.69
2024-02-02T12:15:24.272Z,101204.34
2024-02-02T12:20:30.626Z,101195.31
2024-02-02T12:25:34.846Z,101190.63
2024-02-02T12:30:38.578Z,101185.47
2024-02-02T12:35:42.827Z,101178.88
2024-02-02T12:40:46.377Z,101171.91
2024-02-02T12:45:49.850Z,101164.69
2024-02-02T12:50:53.692Z,101173.47
2024-02-02T12:55:57.166Z,101167.94
2024-02-02T13:01:01.178Z,101172.88
2024-02-02T13:06:05.810Z,101161.56
2024-02-02T13:11:27.616Z,101164.19
2024-02-02T13:16:34.694Z,101163.47
2024-02-02T13:21:43.841Z,101157.97
2024-02-02T13:26:52.333Z,101148.38
2024-02-02T13:31:56.176Z,101154.22
2024-02-02T13:37:00.966Z,101152.44
2024-02-02T13:42:06.275Z,101151.47
2024-02-02T13:47:15.208Z,101157.69
2024-02-02T13:52:18.636Z,101158.28
2024-02-02T13:57:23.109Z,101154.81
2024-02-02T14:02:27.670Z,101154.81
2024-02-02T14:07:31.274Z,101159.94
2024-02-02T14:12:38.500Z,101159.56
2024-02-02T14:17:42.235Z,101149.72
2024-02-02T14:22:46.163Z,101141.53
2024-02-02T14:27:49.437Z,101139.13
2024-02-02T14:33:04.858Z,101141.28
2024-02-02T14:38:16.845Z,101156.59
2024-02-02T14:43:20.202Z,101163.50
2024-02-02T14:48:23.720Z,101160.69
2024-02-02T14:53:27.026Z,101149.75
2024-02-02T14:58:30.353Z,101144.94
2024-02-02T15:03:33.803Z,101152.47
2024-02-02T15:08:39.158Z,101151.94
2024-02-02T15:13:42.835Z,101163.53
2024-02-02T15:18:47.830Z,101162.44
2024-02-02T15:23:51.237Z,101159.41
2024-02-02T15:28:54.736Z,101162.59
2024-02-02T15:33:58.490Z,101169.97
2024-02-02T15:39:18.156Z,101159.34
2024-02-02T15:44:26.316Z,101162.75
2024-02-02T15:49:30.052Z,101157.38
2024-02-02T15:54:35.539Z,101151.81
2024-02-02T15:59:40.205Z,101148.97
2024-02-02T16:04:43.844Z,101141.31
2024-02-02T16:09:47.847Z,101136.13
2024-02-02T16:14:51.642Z,101129.94
2024-02-02T16:19:56.638Z,101125.59
2024-02-02T16:25:00.367Z,101127.50
2024-02-02T16:30:05.568Z,101105.91
2024-02-02T16:35:09.525Z,101127.72
2024-02-02T16:40:14.168Z,101136.34
2024-02-02T16:45:18.233Z,101128.44
2024-02-02T16:50:22.346Z,101126.53
2024-02-02T16:55:25.907Z,101111.72
2024-02-02T17:00:30.850Z,101099.50
2024-02-02T17:05:34.801Z,101103.19
2024-02-02T17:10:38.503Z,101091.91
2024-02-02T17:15:42.526Z,101100.75
2024-02-02T17:20:46.524Z,101109.63
2024-02-02T17:25:50.458Z,101113.81
2024-02-02T17:30:55.379Z,101113.09
2024-02-02T17:35:59.647Z,101107.94
2024-02-02T17:41:04.131Z,101110.56
2024-02-02T17:46:09.360Z,101108.03
2024-02-02T17:51:21.230Z,101107.53
2024-02-02T17:56:25.092Z,101114.66
2024-02-02T18:01:28.992Z,101108.03
2024-02-02T18:06:33.559Z,101109.63
2024-02-02T18:11:37.514Z,101111.84
2024-02-02T18:16:40.909Z,101101.06
2024-02-02T18:21:44.474Z,101089.28
2024-02-02T18:26:47.987Z,101094.22
2024-02-02T18:31:51.638Z,101076.75
2024-02-02T18:36:55.106Z,101073.38
2024-02-02T18:42:05.164Z,101071.25
2024-02-02T18:47:08.674Z,101059.28
2024-02-02T18:52:13.112Z,101044.53
2024-02-02T18:57:18.102Z,101049.81
2024-02-02T19:02:21.437Z,101046.66
2024-02-02T19:07:26.767Z,101037.91
2024-02-02T19:12:30.327Z,101035.28
2024-02-02T19:17:33.769Z,101026.66
2024-02-02T19:22:37.626Z,101028.44
2024-02-02T19:27:41.044Z,101023.19
2024-02-02T19:32:44.529Z,101017.38
2024-02-02T19:37:47.940Z,101005.25
2024-02-02T19:42:51.530Z,100988.78
2024-02-02T19:47:56.462Z,100977.13
2024-02-02T19:52:59.980Z,100948.56
2024-02-02T19:58:03.350Z,100944.84
2024-02-02T20:03:06.708Z,100939.56
2024-02-02T20:08:10.111Z,100937.19
2024-02-02T20:13:13.435Z,100928.06
2024-02-02T20:18:17.874Z,100928.38
2024-02-02T20:23:21.965Z,100916.63
2024-02-02T20:28:25.217Z,100905.72
2024-02-02T20:33:29.009Z,100899.44
2024-02-02T20:38:32.551Z,100904.19
2024-02-02T20:43:36.030Z,100900.09
2024-02-02T20:48:39.608Z,100890.75
2024-02-02T20:53:43.188Z,100895.50
2024-02-02T20:58:47.014Z,100884.75
2024-02-02T21:03:50.513Z,100881.69
2024-02-02T21:08:55.285Z,100863.53
2024-02-02T21:13:58.693Z,100873.47
2024-02-02T21:19:05.864Z,100868.19
2024-02-02T21:24:09.481Z,100867.56
2024-02-02T21:29:13.300Z,100854.75
2024-02-02T21:34:17.042Z,100837.63
2024-02-02T21:39:20.317Z,100830.78
2024-02-02T21:44:24.800Z,100838.81
2024-02-02T21:49:28.592Z,100834.84
2024-02-02T21:54:32.194Z,100830.63
2024-02-02T21:59:39.176Z,100816.75
2024-02-02T22:04:43.192Z,100820.34
2024-02-02T22:09:47.006Z,100794.47
2024-02-02T22:14:50.267Z,100794.69
2024-02-02T22:19:54.033Z,100781.66
2024-02-02T22:24:57.574Z,100773.25
2024-02-02T22:30:00.933Z,100759.38
2024-02-02T22:35:05.140Z,100761.91
2024-02-02T22:40:09.936Z,100757.72
2024-02-02T22:45:13.633Z,100750.66
2024-02-02T22:50:17.496Z,100745.13
2024-02-02T22:55:21.090Z,100731.03
2024-02-02T23:00:24.590Z,100726.59
2024-02-02T23:05:28.277Z,100710.91
2024-02-02T23:10:31.731Z,100705.03
2024-02-02T23:15:36.722Z,100696.41
2024-02-02T23:20:40.304Z,100692.72
2024-02-02T23:25:44.969Z,100683.50
2024-02-02T23:30:49.637Z,100675.00
2024-02-02T23:35:53.404Z,100672.97
2024-02-02T23:40:57.148Z,100665.63
2024-02-02T23:46:00.782Z,100655.84
2024-02-02T23:51:07.775Z,100651.75
2024-02-02T23:56:11.294Z,100646.97
